Terminal Aerodrome Forecast
Issued by NWS

Current Version | Previous Version | Text Only | Print | Product List | Glossary On
Versions: 1 2 3 4 5 6 7 8 9 10 11 12 13 14 15 16 17 18 19 20 21 22
409
FTUS41 KPBZ 300520
TAFAGC
TAF
KAGC 300520Z 3006/3106 09007KT P6SM BKN150
     FM301600 11008KT P6SM VCSH BKN060
     FM302100 12010KT P6SM BKN100
     FM310300 14012KT P6SM VCSH OVC050 WS020/20045KT=

USA.gov is the U.S. government's official web portal to all federal, state and local government web resources and services.